Terminal Aerodrome Forecast
Issued by NWS Northern Indiana

Home | Current Version | Previous Version | Graphics & Text | Print | Product List | Glossary On
Versions: 1 2 3 4 5 6 7 8 9 10 11 12 13
000
FTUS43 KIWX 271724
TAFFWA
TAF
KFWA 271724Z 2718/2818 25017G26KT P6SM SKC
     FM272300 25009KT P6SM FEW250
     FM280900 19004KT P6SM BKN110
     FM281600 28004KT P6SM BKN050=

USA.gov is the U.S. government's official web portal to all federal, state and local government web resources and services.